Hovedside
METAR-TAF:

METAR-TAF

Lufthavner :

Linköping, Sverige

Linköping lufthavn

breddegrad: 58-24N, lengdegrad: 015-41E, høyde over havet: 52 m

Gjeldene værobservasjon

Denne rapporten ble laget for 25 minutter siden, klokken 07:20 UTC
Vind 3 kt fra Øst
Temperatur 4°C
Luftfuktighet 87%
Trykk 1026 hPa
Sikt 10 km eller mer
Få skyer i en høyde av 2800 ft
Brutte skyer i en høyde av 4700 ft

METAR: ESSL 240720Z 09003KT 9999 FEW028 BKN047 04/02 Q1026

Tid: 09:45 (07:45 UTC)

Varsel

Denne rapporten ble laget for 29 minutter siden, klokken 07:16 UTC
Varsel gyldig fra 24. klokken 05 UTC til 24. klokken 14 UTC
Vind 6 kt fra Øst
Sikt 10 km eller mer
Brutte skyer i en høyde av 4000 ft

TAF: ESSL 240716Z 2405/2414 09006KT 9999 BKN040

Værobservasjoner og værvarsel for over 4000 flyplasser (METAR- og TAF-rapporter).

Tilgjengelige stasjoner er representert av de røde og gule prikkene på kartet.

Hold musepekeren over prikken for å se navnet på stasjonen.

Klikk så for å se værobservasjoner og -varsler.

For å forandre kartet kan du klikke på den grønne knappen med svart kryss for å zoome inn, på den grønne knappen med strek for å zoome ut, eller på de grønne pilene for å se tilstøtende kart.


METAR-TAF: